sensor_id;sensor_type;location;lat;lon;timestamp;P1;durP1;ratioP1;P2;durP2;ratioP2
13421;SDS011;6782;55.904;13.396;2022-07-22T00:00:09;8.65;;;7.25;;
13421;SDS011;6782;55.904;13.396;2022-07-22T00:02:57;9.57;;;7.47;;
13421;SDS011;6782;55.904;13.396;2022-07-22T00:05:44;9.73;;;7.18;;
13421;SDS011;6782;55.904;13.396;2022-07-22T00:08:31;9.18;;;7.85;;
13421;SDS011;6782;55.904;13.396;2022-07-22T00:11:17;9.50;;;7.65;;
13421;SDS011;6782;55.904;13.396;2022-07-22T00:14:04;7.93;;;7.13;;
13421;SDS011;6782;55.904;13.396;2022-07-22T00:16:51;10.45;;;7.40;;
13421;SDS011;6782;55.904;13.396;2022-07-22T00:19:39;9.32;;;7.50;;
13421;SDS011;6782;55.904;13.396;2022-07-22T00:22:26;9.80;;;7.60;;
13421;SDS011;6782;55.904;13.396;2022-07-22T00:25:12;9.88;;;7.97;;
13421;SDS011;6782;55.904;13.396;2022-07-22T00:27:59;11.02;;;7.07;;
13421;SDS011;6782;55.904;13.396;2022-07-22T00:30:46;12.13;;;7.72;;
13421;SDS011;6782;55.904;13.396;2022-07-22T00:33:33;9.18;;;7.00;;
13421;SDS011;6782;55.904;13.396;2022-07-22T00:36:21;8.50;;;7.53;;
13421;SDS011;6782;55.904;13.396;2022-07-22T00:39:08;8.50;;;7.13;;
13421;SDS011;6782;55.904;13.396;2022-07-22T00:41:55;8.30;;;7.50;;
13421;SDS011;6782;55.904;13.396;2022-07-22T00:44:42;10.75;;;8.05;;
13421;SDS011;6782;55.904;13.396;2022-07-22T00:47:29;9.80;;;7.82;;
13421;SDS011;6782;55.904;13.396;2022-07-22T00:50:16;9.88;;;7.93;;
13421;SDS011;6782;55.904;13.396;2022-07-22T00:53:06;9.93;;;8.18;;
13421;SDS011;6782;55.904;13.396;2022-07-22T00:55:53;8.65;;;7.47;;
13421;SDS011;6782;55.904;13.396;2022-07-22T00:58:40;11.27;;;8.30;;
13421;SDS011;6782;55.904;13.396;2022-07-22T01:01:27;11.15;;;8.00;;
13421;SDS011;6782;55.904;13.396;2022-07-22T01:04:14;8.75;;;7.85;;
13421;SDS011;6782;55.904;13.396;2022-07-22T01:07:01;9.27;;;7.40;;
13421;SDS011;6782;55.904;13.396;2022-07-22T01:09:49;10.00;;;8.30;;
13421;SDS011;6782;55.904;13.396;2022-07-22T01:12:36;10.75;;;8.05;;
13421;SDS011;6782;55.904;13.396;2022-07-22T01:15:23;11.93;;;8.32;;
13421;SDS011;6782;55.904;13.396;2022-07-22T01:18:10;10.50;;;8.40;;
13421;SDS011;6782;55.904;13.396;2022-07-22T01:20:58;11.27;;;8.32;;
13421;SDS011;6782;55.904;13.396;2022-07-22T01:23:45;12.18;;;8.32;;
13421;SDS011;6782;55.904;13.396;2022-07-22T01:26:32;11.57;;;8.70;;
13421;SDS011;6782;55.904;13.396;2022-07-22T01:29:19;10.38;;;7.70;;
13421;SDS011;6782;55.904;13.396;2022-07-22T01:32:06;11.05;;;8.48;;
13421;SDS011;6782;55.904;13.396;2022-07-22T01:34:53;13.77;;;9.57;;
13421;SDS011;6782;55.904;13.396;2022-07-22T01:37:41;15.02;;;9.82;;
13421;SDS011;6782;55.904;13.396;2022-07-22T01:40:28;11.55;;;10.32;;
13421;SDS011;6782;55.904;13.396;2022-07-22T01:43:15;16.35;;;11.10;;
13421;SDS011;6782;55.904;13.396;2022-07-22T01:46:03;12.98;;;11.18;;
13421;SDS011;6782;55.904;13.396;2022-07-22T01:48:50;13.98;;;11.38;;
13421;SDS011;6782;55.904;13.396;2022-07-22T01:51:37;16.75;;;11.90;;
13421;SDS011;6782;55.904;13.396;2022-07-22T01:54:25;15.93;;;12.02;;
13421;SDS011;6782;55.904;13.396;2022-07-22T01:57:12;14.82;;;12.35;;
13421;SDS011;6782;55.904;13.396;2022-07-22T01:59:58;14.50;;;12.18;;
13421;SDS011;6782;55.904;13.396;2022-07-22T02:02:45;13.40;;;12.00;;
13421;SDS011;6782;55.904;13.396;2022-07-22T02:05:32;14.23;;;12.80;;
13421;SDS011;6782;55.904;13.396;2022-07-22T02:08:19;14.75;;;13.18;;
13421;SDS011;6782;55.904;13.396;2022-07-22T02:11:08;16.52;;;11.52;;
13421;SDS011;6782;55.904;13.396;2022-07-22T02:13:54;13.65;;;12.18;;
13421;SDS011;6782;55.904;13.396;2022-07-22T02:16:41;15.68;;;12.60;;
13421;SDS011;6782;55.904;13.396;2022-07-22T02:19:28;14.90;;;11.48;;
13421;SDS011;6782;55.904;13.396;2022-07-22T02:22:15;14.88;;;12.20;;
13421;SDS011;6782;55.904;13.396;2022-07-22T02:25:02;14.98;;;11.23;;
13421;SDS011;6782;55.904;13.396;2022-07-22T02:27:51;15.55;;;11.63;;
13421;SDS011;6782;55.904;13.396;2022-07-22T02:30:37;15.65;;;11.02;;
13421;SDS011;6782;55.904;13.396;2022-07-22T02:33:24;13.88;;;10.93;;
13421;SDS011;6782;55.904;13.396;2022-07-22T02:36:11;16.98;;;11.65;;
13421;SDS011;6782;55.904;13.396;2022-07-22T02:38:58;14.57;;;11.18;;
13421;SDS011;6782;55.904;13.396;2022-07-22T02:41:45;15.93;;;12.20;;
13421;SDS011;6782;55.904;13.396;2022-07-22T02:44:33;13.70;;;11.25;;
13421;SDS011;6782;55.904;13.396;2022-07-22T02:47:19;15.25;;;11.73;;
13421;SDS011;6782;55.904;13.396;2022-07-22T02:50:06;11.48;;;10.07;;
13421;SDS011;6782;55.904;13.396;2022-07-22T02:52:53;17.80;;;10.70;;
13421;SDS011;6782;55.904;13.396;2022-07-22T02:55:40;14.02;;;12.18;;
13421;SDS011;6782;55.904;13.396;2022-07-22T02:58:27;12.98;;;11.57;;
13421;SDS011;6782;55.904;13.396;2022-07-22T03:01:15;12.60;;;10.57;;
13421;SDS011;6782;55.904;13.396;2022-07-22T03:04:02;12.88;;;11.07;;
13421;SDS011;6782;55.904;13.396;2022-07-22T03:06:48;15.07;;;11.18;;
13421;SDS011;6782;55.904;13.396;2022-07-22T03:09:35;13.57;;;12.13;;
13421;SDS011;6782;55.904;13.396;2022-07-22T03:12:22;14.38;;;11.90;;
13421;SDS011;6782;55.904;13.396;2022-07-22T03:15:09;13.63;;;10.98;;
13421;SDS011;6782;55.904;13.396;2022-07-22T03:17:57;12.68;;;11.38;;
13421;SDS011;6782;55.904;13.396;2022-07-22T03:20:45;13.20;;;11.65;;
13421;SDS011;6782;55.904;13.396;2022-07-22T03:23:31;13.65;;;12.07;;
13421;SDS011;6782;55.904;13.396;2022-07-22T03:26:18;14.60;;;11.02;;
13421;SDS011;6782;55.904;13.396;2022-07-22T03:29:05;13.00;;;10.93;;
13421;SDS011;6782;55.904;13.396;2022-07-22T03:31:53;13.05;;;11.07;;
13421;SDS011;6782;55.904;13.396;2022-07-22T03:34:41;12.65;;;10.00;;
13421;SDS011;6782;55.904;13.396;2022-07-22T03:37:28;13.93;;;10.73;;
13421;SDS011;6782;55.904;13.396;2022-07-22T03:40:16;13.27;;;9.80;;
13421;SDS011;6782;55.904;13.396;2022-07-22T03:43:02;10.38;;;9.43;;
13421;SDS011;6782;55.904;13.396;2022-07-22T03:45:49;9.15;;;8.25;;
13421;SDS011;6782;55.904;13.396;2022-07-22T03:48:36;10.38;;;9.10;;
13421;SDS011;6782;55.904;13.396;2022-07-22T03:51:24;9.20;;;8.30;;
13421;SDS011;6782;55.904;13.396;2022-07-22T03:54:11;9.15;;;7.90;;
13421;SDS011;6782;55.904;13.396;2022-07-22T03:56:58;8.75;;;7.85;;
13421;SDS011;6782;55.904;13.396;2022-07-22T03:59:45;9.55;;;8.40;;
13421;SDS011;6782;55.904;13.396;2022-07-22T04:02:32;10.23;;;8.07;;
13421;SDS011;6782;55.904;13.396;2022-07-22T04:05:19;8.73;;;7.88;;
13421;SDS011;6782;55.904;13.396;2022-07-22T04:08:07;9.23;;;8.13;;
13421;SDS011;6782;55.904;13.396;2022-07-22T04:10:54;10.68;;;7.82;;
13421;SDS011;6782;55.904;13.396;2022-07-22T04:13:41;10.75;;;8.18;;
13421;SDS011;6782;55.904;13.396;2022-07-22T04:16:27;9.18;;;8.27;;
13421;SDS011;6782;55.904;13.396;2022-07-22T04:19:14;10.05;;;7.93;;
13421;SDS011;6782;55.904;13.396;2022-07-22T04:22:01;8.07;;;7.30;;
13421;SDS011;6782;55.904;13.396;2022-07-22T04:24:50;8.40;;;6.95;;
13421;SDS011;6782;55.904;13.396;2022-07-22T04:27:37;8.10;;;7.30;;
13421;SDS011;6782;55.904;13.396;2022-07-22T04:30:24;8.60;;;7.57;;
13421;SDS011;6782;55.904;13.396;2022-07-22T04:33:10;8.40;;;7.60;;
13421;SDS011;6782;55.904;13.396;2022-07-22T04:35:57;7.57;;;6.72;;
13421;SDS011;6782;55.904;13.396;2022-07-22T04:38:44;9.93;;;6.82;;
13421;SDS011;6782;55.904;13.396;2022-07-22T04:41:32;8.93;;;6.20;;
13421;SDS011;6782;55.904;13.396;2022-07-22T04:44:19;8.88;;;6.45;;
13421;SDS011;6782;55.904;13.396;2022-07-22T04:47:05;9.43;;;6.65;;
13421;SDS011;6782;55.904;13.396;2022-07-22T04:49:52;8.75;;;6.45;;
13421;SDS011;6782;55.904;13.396;2022-07-22T04:52:39;9.27;;;6.13;;
13421;SDS011;6782;55.904;13.396;2022-07-22T04:55:26;7.65;;;6.35;;
13421;SDS011;6782;55.904;13.396;2022-07-22T04:58:14;10.52;;;6.30;;
13421;SDS011;6782;55.904;13.396;2022-07-22T05:01:00;10.55;;;6.78;;
13421;SDS011;6782;55.904;13.396;2022-07-22T05:03:47;11.35;;;6.82;;
13421;SDS011;6782;55.904;13.396;2022-07-22T05:06:34;8.25;;;6.38;;
13421;SDS011;6782;55.904;13.396;2022-07-22T05:09:21;14.60;;;6.55;;
13421;SDS011;6782;55.904;13.396;2022-07-22T05:12:08;10.88;;;6.70;;
13421;SDS011;6782;55.904;13.396;2022-07-22T05:14:56;10.57;;;6.63;;
13421;SDS011;6782;55.904;13.396;2022-07-22T05:17:43;11.35;;;6.30;;
13421;SDS011;6782;55.904;13.396;2022-07-22T05:20:29;13.23;;;7.10;;
13421;SDS011;6782;55.904;13.396;2022-07-22T05:23:16;11.77;;;6.55;;
13421;SDS011;6782;55.904;13.396;2022-07-22T05:26:03;10.52;;;6.78;;
13421;SDS011;6782;55.904;13.396;2022-07-22T05:28:50;13.85;;;6.43;;
13421;SDS011;6782;55.904;13.396;2022-07-22T05:31:38;9.88;;;6.30;;
13421;SDS011;6782;55.904;13.396;2022-07-22T05:34:25;11.43;;;5.72;;
13421;SDS011;6782;55.904;13.396;2022-07-22T05:37:12;10.38;;;5.95;;
13421;SDS011;6782;55.904;13.396;2022-07-22T05:39:58;11.15;;;6.50;;
13421;SDS011;6782;55.904;13.396;2022-07-22T05:42:45;14.02;;;6.45;;
13421;SDS011;6782;55.904;13.396;2022-07-22T05:45:32;12.75;;;6.10;;
13421;SDS011;6782;55.904;13.396;2022-07-22T05:48:20;12.75;;;5.78;;
13421;SDS011;6782;55.904;13.396;2022-07-22T05:51:10;9.75;;;6.30;;
13421;SDS011;6782;55.904;13.396;2022-07-22T05:53:57;14.07;;;6.45;;
13421;SDS011;6782;55.904;13.396;2022-07-22T05:56:44;12.73;;;6.75;;
13421;SDS011;6782;55.904;13.396;2022-07-22T05:59:30;13.88;;;6.22;;
13421;SDS011;6782;55.904;13.396;2022-07-22T06:02:17;12.55;;;6.25;;
13421;SDS011;6782;55.904;13.396;2022-07-22T06:05:06;13.57;;;6.32;;
13421;SDS011;6782;55.904;13.396;2022-07-22T06:07:53;11.07;;;5.43;;
13421;SDS011;6782;55.904;13.396;2022-07-22T06:10:39;8.20;;;5.53;;
13421;SDS011;6782;55.904;13.396;2022-07-22T06:13:26;13.18;;;6.57;;
13421;SDS011;6782;55.904;13.396;2022-07-22T06:16:13;10.00;;;5.55;;
13421;SDS011;6782;55.904;13.396;2022-07-22T06:19:00;11.57;;;6.28;;
13421;SDS011;6782;55.904;13.396;2022-07-22T06:21:48;11.23;;;5.60;;
13421;SDS011;6782;55.904;13.396;2022-07-22T06:24:35;9.50;;;5.50;;
13421;SDS011;6782;55.904;13.396;2022-07-22T06:27:22;11.88;;;6.00;;
13421;SDS011;6782;55.904;13.396;2022-07-22T06:30:09;13.32;;;5.22;;
13421;SDS011;6782;55.904;13.396;2022-07-22T06:32:56;11.68;;;5.53;;
13421;SDS011;6782;55.904;13.396;2022-07-22T06:35:42;14.18;;;5.80;;
13421;SDS011;6782;55.904;13.396;2022-07-22T06:38:30;14.73;;;5.55;;
13421;SDS011;6782;55.904;13.396;2022-07-22T06:41:17;10.20;;;4.32;;
13421;SDS011;6782;55.904;13.396;2022-07-22T06:44:05;8.98;;;4.70;;
13421;SDS011;6782;55.904;13.396;2022-07-22T06:46:51;9.88;;;4.10;;
13421;SDS011;6782;55.904;13.396;2022-07-22T06:49:38;10.50;;;4.97;;
13421;SDS011;6782;55.904;13.396;2022-07-22T06:52:25;9.70;;;4.53;;
13421;SDS011;6782;55.904;13.396;2022-07-22T06:55:13;10.30;;;4.75;;
13421;SDS011;6782;55.904;13.396;2022-07-22T06:58:00;9.30;;;4.70;;
13421;SDS011;6782;55.904;13.396;2022-07-22T07:00:47;10.25;;;4.82;;
13421;SDS011;6782;55.904;13.396;2022-07-22T07:03:33;9.13;;;4.30;;
13421;SDS011;6782;55.904;13.396;2022-07-22T07:06:20;10.93;;;4.68;;
13421;SDS011;6782;55.904;13.396;2022-07-22T07:09:07;12.18;;;4.38;;
13421;SDS011;6782;55.904;13.396;2022-07-22T07:11:55;11.90;;;4.93;;
13421;SDS011;6782;55.904;13.396;2022-07-22T07:14:42;8.00;;;3.95;;
13421;SDS011;6782;55.904;13.396;2022-07-22T07:17:29;7.53;;;3.83;;
13421;SDS011;6782;55.904;13.396;2022-07-22T07:20:15;7.57;;;3.58;;
13421;SDS011;6782;55.904;13.396;2022-07-22T07:23:02;10.38;;;3.92;;
13421;SDS011;6782;55.904;13.396;2022-07-22T07:25:49;10.23;;;3.85;;
13421;SDS011;6782;55.904;13.396;2022-07-22T07:28:37;7.82;;;3.53;;
13421;SDS011;6782;55.904;13.396;2022-07-22T07:31:24;9.10;;;3.90;;
13421;SDS011;6782;55.904;13.396;2022-07-22T07:34:11;6.97;;;3.53;;
13421;SDS011;6782;55.904;13.396;2022-07-22T07:36:57;7.70;;;3.65;;
13421;SDS011;6782;55.904;13.396;2022-07-22T07:39:44;9.07;;;3.65;;
13421;SDS011;6782;55.904;13.396;2022-07-22T07:42:31;6.82;;;3.38;;
13421;SDS011;6782;55.904;13.396;2022-07-22T07:45:19;10.98;;;3.58;;
13421;SDS011;6782;55.904;13.396;2022-07-22T07:48:06;7.70;;;3.50;;
13421;SDS011;6782;55.904;13.396;2022-07-22T07:50:53;8.68;;;3.80;;
13421;SDS011;6782;55.904;13.396;2022-07-22T07:53:39;10.80;;;4.13;;
13421;SDS011;6782;55.904;13.396;2022-07-22T07:56:26;11.77;;;4.40;;
13421;SDS011;6782;55.904;13.396;2022-07-22T07:59:13;8.60;;;3.88;;
13421;SDS011;6782;55.904;13.396;2022-07-22T08:02:01;8.32;;;4.03;;
13421;SDS011;6782;55.904;13.396;2022-07-22T08:04:48;10.23;;;3.90;;
13421;SDS011;6782;55.904;13.396;2022-07-22T08:07:35;8.63;;;3.67;;
13421;SDS011;6782;55.904;13.396;2022-07-22T08:10:22;8.02;;;3.45;;
13421;SDS011;6782;55.904;13.396;2022-07-22T08:13:09;7.90;;;4.00;;
13421;SDS011;6782;55.904;13.396;2022-07-22T08:15:55;9.35;;;3.50;;
13421;SDS011;6782;55.904;13.396;2022-07-22T08:18:43;8.55;;;3.58;;
13421;SDS011;6782;55.904;13.396;2022-07-22T08:21:30;7.50;;;3.70;;
13421;SDS011;6782;55.904;13.396;2022-07-22T08:24:17;8.40;;;3.75;;
13421;SDS011;6782;55.904;13.396;2022-07-22T08:27:04;8.30;;;3.63;;
13421;SDS011;6782;55.904;13.396;2022-07-22T08:29:50;5.78;;;3.53;;
13421;SDS011;6782;55.904;13.396;2022-07-22T08:32:37;9.73;;;3.80;;
13421;SDS011;6782;55.904;13.396;2022-07-22T08:35:26;7.93;;;3.63;;
13421;SDS011;6782;55.904;13.396;2022-07-22T08:38:13;6.95;;;3.33;;
13421;SDS011;6782;55.904;13.396;2022-07-22T08:41:01;8.57;;;3.65;;
13421;SDS011;6782;55.904;13.396;2022-07-22T08:43:48;7.50;;;3.33;;
13421;SDS011;6782;55.904;13.396;2022-07-22T08:46:35;5.38;;;2.95;;
13421;SDS011;6782;55.904;13.396;2022-07-22T08:49:22;6.03;;;3.10;;
13421;SDS011;6782;55.904;13.396;2022-07-22T08:52:11;7.38;;;3.20;;
13421;SDS011;6782;55.904;13.396;2022-07-22T08:54:58;6.93;;;3.33;;
13421;SDS011;6782;55.904;13.396;2022-07-22T08:57:45;6.05;;;3.33;;
13421;SDS011;6782;55.904;13.396;2022-07-22T09:00:32;6.35;;;3.55;;
13421;SDS011;6782;55.904;13.396;2022-07-22T09:03:19;8.07;;;3.58;;
13421;SDS011;6782;55.904;13.396;2022-07-22T09:06:07;9.20;;;3.75;;
13421;SDS011;6782;55.904;13.396;2022-07-22T09:08:56;5.15;;;3.00;;
13421;SDS011;6782;55.904;13.396;2022-07-22T09:11:43;5.47;;;3.20;;
13421;SDS011;6782;55.904;13.396;2022-07-22T09:14:34;8.68;;;3.55;;
13421;SDS011;6782;55.904;13.396;2022-07-22T09:17:30;5.82;;;3.60;;
13421;SDS011;6782;55.904;13.396;2022-07-22T09:20:17;6.50;;;3.20;;
13421;SDS011;6782;55.904;13.396;2022-07-22T09:23:08;8.55;;;4.22;;
13421;SDS011;6782;55.904;13.396;2022-07-22T09:25:57;9.38;;;4.05;;
13421;SDS011;6782;55.904;13.396;2022-07-22T09:28:53;6.70;;;3.53;;
13421;SDS011;6782;55.904;13.396;2022-07-22T09:31:40;7.53;;;3.25;;
13421;SDS011;6782;55.904;13.396;2022-07-22T09:34:27;7.80;;;3.72;;
13421;SDS011;6782;55.904;13.396;2022-07-22T09:37:16;7.60;;;3.80;;
13421;SDS011;6782;55.904;13.396;2022-07-22T09:40:13;7.38;;;3.80;;
13421;SDS011;6782;55.904;13.396;2022-07-22T09:43:02;7.25;;;3.50;;
13421;SDS011;6782;55.904;13.396;2022-07-22T09:45:50;8.45;;;4.05;;
13421;SDS011;6782;55.904;13.396;2022-07-22T09:48:37;7.82;;;3.60;;
13421;SDS011;6782;55.904;13.396;2022-07-22T09:51:24;5.32;;;3.53;;
13421;SDS011;6782;55.904;13.396;2022-07-22T09:54:12;8.93;;;3.88;;
13421;SDS011;6782;55.904;13.396;2022-07-22T09:56:59;5.80;;;3.78;;
13421;SDS011;6782;55.904;13.396;2022-07-22T09:59:47;8.73;;;3.50;;
13421;SDS011;6782;55.904;13.396;2022-07-22T10:02:33;7.60;;;3.40;;
13421;SDS011;6782;55.904;13.396;2022-07-22T10:05:23;8.82;;;3.50;;
13421;SDS011;6782;55.904;13.396;2022-07-22T10:08:10;7.07;;;3.40;;
13421;SDS011;6782;55.904;13.396;2022-07-22T10:10:58;6.78;;;3.60;;
13421;SDS011;6782;55.904;13.396;2022-07-22T10:13:45;7.22;;;3.13;;
13421;SDS011;6782;55.904;13.396;2022-07-22T10:16:34;5.72;;;3.40;;
13421;SDS011;6782;55.904;13.396;2022-07-22T10:19:22;6.93;;;3.92;;
13421;SDS011;6782;55.904;13.396;2022-07-22T10:25:12;4.95;;;3.08;;
13421;SDS011;6782;55.904;13.396;2022-07-22T10:28:00;6.38;;;2.95;;
13421;SDS011;6782;55.904;13.396;2022-07-22T10:30:48;9.38;;;3.42;;
13421;SDS011;6782;55.904;13.396;2022-07-22T10:33:36;9.93;;;2.95;;
13421;SDS011;6782;55.904;13.396;2022-07-22T10:36:30;5.90;;;2.67;;
13421;SDS011;6782;55.904;13.396;2022-07-22T10:39:17;7.43;;;3.25;;
13421;SDS011;6782;55.904;13.396;2022-07-22T10:42:04;5.93;;;3.00;;
13421;SDS011;6782;55.904;13.396;2022-07-22T10:44:51;5.22;;;3.20;;
13421;SDS011;6782;55.904;13.396;2022-07-22T10:47:51;3.33;;;2.58;;
13421;SDS011;6782;55.904;13.396;2022-07-22T10:50:40;5.30;;;2.90;;
13421;SDS011;6782;55.904;13.396;2022-07-22T10:53:38;6.60;;;3.03;;
13421;SDS011;6782;55.904;13.396;2022-07-22T10:56:26;8.38;;;2.97;;
13421;SDS011;6782;55.904;13.396;2022-07-22T10:59:15;5.22;;;3.17;;
13421;SDS011;6782;55.904;13.396;2022-07-22T11:02:02;4.25;;;2.80;;
13421;SDS011;6782;55.904;13.396;2022-07-22T11:04:49;5.15;;;2.90;;
13421;SDS011;6782;55.904;13.396;2022-07-22T11:07:41;5.60;;;3.17;;
13421;SDS011;6782;55.904;13.396;2022-07-22T11:10:28;6.15;;;3.00;;
13421;SDS011;6782;55.904;13.396;2022-07-22T11:13:29;7.15;;;3.20;;
13421;SDS011;6782;55.904;13.396;2022-07-22T11:16:17;6.53;;;3.35;;
13421;SDS011;6782;55.904;13.396;2022-07-22T11:19:04;6.50;;;3.45;;
13421;SDS011;6782;55.904;13.396;2022-07-22T11:21:52;5.20;;;3.25;;
13421;SDS011;6782;55.904;13.396;2022-07-22T11:24:40;4.55;;;3.00;;
13421;SDS011;6782;55.904;13.396;2022-07-22T11:27:27;4.57;;;2.88;;
13421;SDS011;6782;55.904;13.396;2022-07-22T11:30:14;6.40;;;3.30;;
13421;SDS011;6782;55.904;13.396;2022-07-22T11:33:01;6.60;;;3.30;;
13421;SDS011;6782;55.904;13.396;2022-07-22T11:35:59;8.70;;;3.60;;
13421;SDS011;6782;55.904;13.396;2022-07-22T11:38:46;3.95;;;3.33;;
13421;SDS011;6782;55.904;13.396;2022-07-22T11:41:35;4.88;;;2.92;;
13421;SDS011;6782;55.904;13.396;2022-07-22T11:44:23;7.18;;;3.60;;
13421;SDS011;6782;55.904;13.396;2022-07-22T11:47:10;6.68;;;3.15;;
13421;SDS011;6782;55.904;13.396;2022-07-22T11:49:57;5.82;;;3.03;;
13421;SDS011;6782;55.904;13.396;2022-07-22T11:52:51;6.22;;;3.03;;
13421;SDS011;6782;55.904;13.396;2022-07-22T11:55:38;5.38;;;2.83;;
13421;SDS011;6782;55.904;13.396;2022-07-22T11:58:39;5.35;;;3.17;;
13421;SDS011;6782;55.904;13.396;2022-07-22T12:01:26;5.43;;;3.05;;
13421;SDS011;6782;55.904;13.396;2022-07-22T12:04:14;4.90;;;2.55;;
13421;SDS011;6782;55.904;13.396;2022-07-22T12:07:02;5.22;;;2.80;;
13421;SDS011;6782;55.904;13.396;2022-07-22T12:09:50;5.18;;;2.90;;
13421;SDS011;6782;55.904;13.396;2022-07-22T12:12:39;6.40;;;3.15;;
13421;SDS011;6782;55.904;13.396;2022-07-22T12:15:28;4.78;;;2.70;;
13421;SDS011;6782;55.904;13.396;2022-07-22T12:18:16;4.80;;;2.70;;
13421;SDS011;6782;55.904;13.396;2022-07-22T12:21:05;5.50;;;2.67;;
13421;SDS011;6782;55.904;13.396;2022-07-22T12:23:52;4.78;;;2.90;;
13421;SDS011;6782;55.904;13.396;2022-07-22T12:26:40;4.03;;;2.88;;
13421;SDS011;6782;55.904;13.396;2022-07-22T12:29:29;4.63;;;2.42;;
13421;SDS011;6782;55.904;13.396;2022-07-22T12:32:18;5.88;;;2.78;;
13421;SDS011;6782;55.904;13.396;2022-07-22T12:35:10;4.63;;;2.60;;
13421;SDS011;6782;55.904;13.396;2022-07-22T12:38:05;6.85;;;2.90;;
13421;SDS011;6782;55.904;13.396;2022-07-22T12:40:52;4.07;;;2.50;;
13421;SDS011;6782;55.904;13.396;2022-07-22T12:43:38;4.97;;;2.25;;
13421;SDS011;6782;55.904;13.396;2022-07-22T12:46:25;7.53;;;2.65;;
13421;SDS011;6782;55.904;13.396;2022-07-22T12:49:14;5.75;;;2.92;;
13421;SDS011;6782;55.904;13.396;2022-07-22T12:52:05;6.82;;;2.85;;
13421;SDS011;6782;55.904;13.396;2022-07-22T12:54:51;5.65;;;2.70;;
13421;SDS011;6782;55.904;13.396;2022-07-22T12:57:38;5.15;;;2.83;;
13421;SDS011;6782;55.904;13.396;2022-07-22T13:00:26;4.88;;;2.50;;
13421;SDS011;6782;55.904;13.396;2022-07-22T13:03:12;5.93;;;2.83;;
13421;SDS011;6782;55.904;13.396;2022-07-22T13:06:01;5.47;;;2.85;;
13421;SDS011;6782;55.904;13.396;2022-07-22T13:08:48;5.15;;;2.50;;
13421;SDS011;6782;55.904;13.396;2022-07-22T13:11:35;3.95;;;2.72;;
13421;SDS011;6782;55.904;13.396;2022-07-22T13:14:25;6.95;;;3.15;;
13421;SDS011;6782;55.904;13.396;2022-07-22T13:17:12;7.97;;;2.83;;
13421;SDS011;6782;55.904;13.396;2022-07-22T13:19:59;9.13;;;3.10;;
13421;SDS011;6782;55.904;13.396;2022-07-22T13:22:47;6.63;;;3.00;;
13421;SDS011;6782;55.904;13.396;2022-07-22T13:25:34;4.85;;;2.70;;
13421;SDS011;6782;55.904;13.396;2022-07-22T13:28:21;5.18;;;3.10;;
13421;SDS011;6782;55.904;13.396;2022-07-22T13:31:08;6.13;;;3.15;;
13421;SDS011;6782;55.904;13.396;2022-07-22T13:33:54;8.85;;;3.05;;
13421;SDS011;6782;55.904;13.396;2022-07-22T13:36:41;7.07;;;2.90;;
13421;SDS011;6782;55.904;13.396;2022-07-22T13:39:29;10.93;;;3.08;;
13421;SDS011;6782;55.904;13.396;2022-07-22T13:42:16;8.40;;;2.85;;
13421;SDS011;6782;55.904;13.396;2022-07-22T13:45:05;6.38;;;2.60;;
13421;SDS011;6782;55.904;13.396;2022-07-22T13:47:52;7.97;;;2.92;;
13421;SDS011;6782;55.904;13.396;2022-07-22T13:50:39;8.10;;;2.92;;
13421;SDS011;6782;55.904;13.396;2022-07-22T13:53:25;9.13;;;3.22;;
13421;SDS011;6782;55.904;13.396;2022-07-22T13:56:13;7.90;;;2.80;;
13421;SDS011;6782;55.904;13.396;2022-07-22T13:59:00;7.47;;;2.95;;
13421;SDS011;6782;55.904;13.396;2022-07-22T14:01:47;6.82;;;2.60;;
13421;SDS011;6782;55.904;13.396;2022-07-22T14:04:34;8.13;;;2.72;;
13421;SDS011;6782;55.904;13.396;2022-07-22T14:07:21;11.10;;;3.08;;
13421;SDS011;6782;55.904;13.396;2022-07-22T14:10:08;8.45;;;2.92;;
13421;SDS011;6782;55.904;13.396;2022-07-22T14:12:56;9.20;;;2.67;;
13421;SDS011;6782;55.904;13.396;2022-07-22T14:15:43;6.32;;;2.65;;
13421;SDS011;6782;55.904;13.396;2022-07-22T14:18:30;9.60;;;2.90;;
13421;SDS011;6782;55.904;13.396;2022-07-22T14:21:17;7.30;;;2.70;;
13421;SDS011;6782;55.904;13.396;2022-07-22T14:24:04;6.07;;;2.58;;
13421;SDS011;6782;55.904;13.396;2022-07-22T14:26:51;10.85;;;3.70;;
13421;SDS011;6782;55.904;13.396;2022-07-22T14:29:39;11.00;;;3.10;;
13421;SDS011;6782;55.904;13.396;2022-07-22T14:32:26;6.28;;;2.75;;
13421;SDS011;6782;55.904;13.396;2022-07-22T14:35:13;7.80;;;3.20;;
13421;SDS011;6782;55.904;13.396;2022-07-22T14:38:00;8.40;;;3.00;;
13421;SDS011;6782;55.904;13.396;2022-07-22T14:40:47;7.60;;;2.92;;
13421;SDS011;6782;55.904;13.396;2022-07-22T14:43:34;7.20;;;3.05;;
13421;SDS011;6782;55.904;13.396;2022-07-22T14:46:22;6.93;;;2.85;;
13421;SDS011;6782;55.904;13.396;2022-07-22T14:49:09;10.02;;;3.50;;
13421;SDS011;6782;55.904;13.396;2022-07-22T14:51:56;5.13;;;2.70;;
13421;SDS011;6782;55.904;13.396;2022-07-22T14:54:43;7.70;;;2.95;;
13421;SDS011;6782;55.904;13.396;2022-07-22T14:57:30;9.68;;;3.22;;
13421;SDS011;6782;55.904;13.396;2022-07-22T15:00:17;7.40;;;3.03;;
13421;SDS011;6782;55.904;13.396;2022-07-22T15:03:05;7.10;;;3.15;;
13421;SDS011;6782;55.904;13.396;2022-07-22T15:05:52;8.57;;;3.28;;
13421;SDS011;6782;55.904;13.396;2022-07-22T15:08:39;5.70;;;2.70;;
13421;SDS011;6782;55.904;13.396;2022-07-22T15:11:25;9.05;;;3.00;;
13421;SDS011;6782;55.904;13.396;2022-07-22T15:14:12;8.18;;;3.03;;
13421;SDS011;6782;55.904;13.396;2022-07-22T15:16:59;6.22;;;2.47;;
13421;SDS011;6782;55.904;13.396;2022-07-22T15:19:47;6.38;;;2.85;;
13421;SDS011;6782;55.904;13.396;2022-07-22T15:22:34;8.35;;;2.80;;
13421;SDS011;6782;55.904;13.396;2022-07-22T15:25:20;7.30;;;2.78;;
13421;SDS011;6782;55.904;13.396;2022-07-22T15:28:08;6.40;;;2.90;;
13421;SDS011;6782;55.904;13.396;2022-07-22T15:30:55;6.55;;;2.72;;
13421;SDS011;6782;55.904;13.396;2022-07-22T15:33:42;7.25;;;2.90;;
13421;SDS011;6782;55.904;13.396;2022-07-22T15:36:31;7.20;;;2.55;;
13421;SDS011;6782;55.904;13.396;2022-07-22T15:39:18;11.82;;;3.00;;
13421;SDS011;6782;55.904;13.396;2022-07-22T15:42:05;6.18;;;2.80;;
13421;SDS011;6782;55.904;13.396;2022-07-22T15:44:52;8.18;;;2.95;;
13421;SDS011;6782;55.904;13.396;2022-07-22T15:47:38;7.22;;;2.60;;
13421;SDS011;6782;55.904;13.396;2022-07-22T15:50:25;8.02;;;2.95;;
13421;SDS011;6782;55.904;13.396;2022-07-22T15:53:13;7.93;;;2.80;;
13421;SDS011;6782;55.904;13.396;2022-07-22T15:56:00;5.43;;;2.53;;
13421;SDS011;6782;55.904;13.396;2022-07-22T15:58:47;7.63;;;2.80;;
13421;SDS011;6782;55.904;13.396;2022-07-22T16:01:51;8.98;;;2.85;;
13421;SDS011;6782;55.904;13.396;2022-07-22T16:04:38;7.85;;;2.30;;
13421;SDS011;6782;55.904;13.396;2022-07-22T16:07:25;7.70;;;2.40;;
13421;SDS011;6782;55.904;13.396;2022-07-22T16:10:13;7.13;;;2.53;;
13421;SDS011;6782;55.904;13.396;2022-07-22T16:13:00;8.30;;;2.50;;
13421;SDS011;6782;55.904;13.396;2022-07-22T16:15:46;7.28;;;2.95;;
13421;SDS011;6782;55.904;13.396;2022-07-22T16:18:33;7.63;;;2.40;;
13421;SDS011;6782;55.904;13.396;2022-07-22T16:21:20;6.18;;;2.45;;
13421;SDS011;6782;55.904;13.396;2022-07-22T16:24:07;6.20;;;2.53;;
13421;SDS011;6782;55.904;13.396;2022-07-22T16:26:55;6.63;;;2.55;;
13421;SDS011;6782;55.904;13.396;2022-07-22T16:29:42;4.68;;;2.70;;
13421;SDS011;6782;55.904;13.396;2022-07-22T16:32:28;7.38;;;2.33;;
13421;SDS011;6782;55.904;13.396;2022-07-22T16:35:15;7.13;;;2.38;;
13421;SDS011;6782;55.904;13.396;2022-07-22T16:38:02;6.03;;;2.88;;
13421;SDS011;6782;55.904;13.396;2022-07-22T16:40:48;9.00;;;2.72;;
13421;SDS011;6782;55.904;13.396;2022-07-22T16:43:37;5.05;;;2.40;;